createdAt,value
2022-09-23T00:04:53.670Z,2.00
2022-09-23T00:09:58.851Z,2.03
2022-09-23T00:15:02.427Z,2.10
2022-09-23T00:20:06.767Z,2.10
2022-09-23T00:25:13.088Z,2.00
2022-09-23T00:30:16.614Z,2.08
2022-09-23T00:35:20.408Z,2.10
2022-09-23T00:40:25.660Z,2.08
2022-09-23T00:45:30.487Z,1.98
2022-09-23T00:55:43.279Z,2.00
2022-09-23T01:00:46.943Z,2.17
2022-09-23T01:05:50.934Z,1.90
2022-09-23T01:11:05.329Z,1.87
2022-09-23T01:16:16.725Z,1.80
2022-09-23T01:21:31.223Z,1.90
2022-09-23T01:27:06.431Z,2.10
2022-09-23T01:32:18.874Z,2.22
2022-09-23T01:37:27.082Z,2.60
2022-09-23T01:42:36.975Z,2.03
2022-09-23T01:47:47.854Z,2.40
2022-09-23T01:52:56.129Z,2.20
2022-09-23T01:58:05.729Z,1.92
2022-09-23T02:03:16.225Z,2.17
2022-09-23T02:08:25.133Z,2.35
2022-09-23T02:13:32.582Z,2.15
2022-09-23T02:18:45.082Z,2.20
2022-09-23T02:23:53.140Z,1.90
2022-09-23T02:29:07.451Z,2.00
2022-09-23T02:34:33.555Z,2.13
2022-09-23T02:39:43.038Z,2.17
2022-09-23T02:44:46.646Z,1.90
2022-09-23T02:49:52.018Z,2.03
2022-09-23T02:54:55.638Z,1.80
2022-09-23T02:59:59.311Z,1.70
2022-09-23T03:05:12.286Z,1.83
2022-09-23T03:10:21.787Z,1.75
2022-09-23T03:15:34.180Z,2.10
2022-09-23T03:20:44.896Z,1.67
2022-09-23T03:25:51.030Z,1.50
2022-09-23T03:30:55.522Z,1.50
2022-09-23T03:36:05.355Z,1.60
2022-09-23T03:41:11.927Z,1.75
2022-09-23T03:46:15.523Z,1.40
2022-09-23T03:51:24.141Z,1.40
2022-09-23T03:56:27.678Z,1.23
2022-09-23T04:01:31.229Z,1.50
2022-09-23T04:06:36.585Z,1.25
2022-09-23T04:11:40.132Z,1.17
2022-09-23T04:16:43.692Z,1.20
2022-09-23T04:21:49.326Z,1.67
2022-09-23T04:26:53.845Z,1.40
2022-09-23T04:31:57.487Z,1.30
2022-09-23T04:37:03.070Z,1.63
2022-09-23T04:42:06.870Z,1.38
2022-09-23T04:47:10.409Z,1.20
2022-09-23T04:52:15.571Z,1.45
2022-09-23T04:57:19.110Z,1.75
2022-09-23T05:02:22.730Z,1.55
2022-09-23T05:07:28.579Z,1.60
2022-09-23T05:12:32.152Z,1.90
2022-09-23T05:17:35.697Z,1.52
2022-09-23T05:22:40.882Z,1.70
2022-09-23T05:27:44.425Z,1.70
2022-09-23T05:32:47.930Z,1.52
2022-09-23T05:37:53.075Z,1.50
2022-09-23T05:42:56.609Z,1.55
2022-09-23T05:48:00.152Z,1.60
2022-09-23T05:53:05.346Z,1.55
2022-09-23T05:58:08.874Z,1.40
2022-09-23T06:03:14.427Z,1.63
2022-09-23T06:08:19.766Z,1.80
2022-09-23T06:13:23.311Z,1.75
2022-09-23T06:18:26.841Z,1.85
2022-09-23T06:23:32.376Z,2.00
2022-09-23T06:28:38.039Z,1.90
2022-09-23T06:38:46.008Z,1.98
2022-09-23T06:43:49.721Z,1.77
2022-09-23T06:48:53.222Z,1.90
2022-09-23T06:53:58.428Z,1.85
2022-09-23T06:59:01.990Z,2.15
2022-09-23T07:04:05.707Z,2.00
2022-09-23T07:09:11.741Z,1.90
2022-09-23T07:14:15.568Z,2.30
2022-09-23T07:19:19.103Z,1.98
2022-09-23T07:24:25.243Z,1.90
2022-09-23T07:29:31.247Z,2.20
2022-09-23T07:34:38.609Z,2.58
2022-09-23T07:39:44.563Z,2.30
2022-09-23T07:44:48.133Z,2.50
2022-09-23T07:49:51.705Z,2.20
2022-09-23T07:54:57.867Z,2.40
2022-09-23T08:00:01.438Z,2.20
2022-09-23T08:05:05.270Z,2.22
2022-09-23T08:10:10.986Z,2.35
2022-09-23T08:20:18.181Z,2.38
2022-09-23T08:25:23.343Z,2.60
2022-09-23T08:30:27.657Z,2.67
2022-09-23T08:35:31.248Z,2.50
2022-09-23T08:40:39.771Z,2.60
2022-09-23T08:45:45.615Z,2.63
2022-09-23T08:50:54.205Z,2.70
2022-09-23T08:56:01.922Z,2.92
2022-09-23T09:01:17.322Z,2.72
2022-09-23T09:06:27.015Z,2.60
2022-09-23T09:11:36.662Z,2.90
2022-09-23T09:17:00.066Z,2.70
2022-09-23T09:22:08.391Z,2.72
2022-09-23T09:27:14.561Z,2.95
2022-09-23T09:32:26.558Z,2.70
2022-09-23T09:37:35.296Z,2.55
2022-09-23T09:42:41.851Z,3.10
2022-09-23T09:47:52.364Z,3.05
2022-09-23T09:53:17.211Z,2.60
2022-09-23T09:58:22.628Z,3.08
2022-09-23T10:03:40.102Z,2.65
2022-09-23T10:08:49.981Z,2.95
2022-09-23T10:14:06.529Z,2.90
2022-09-23T10:19:18.133Z,2.95
2022-09-23T10:24:24.127Z,3.03
2022-09-23T10:29:33.808Z,3.20
2022-09-23T10:34:37.323Z,3.03
2022-09-23T10:39:41.599Z,3.00
2022-09-23T10:45:02.325Z,3.20
2022-09-23T10:50:36.329Z,3.30
2022-09-23T10:56:05.367Z,3.08
2022-09-23T11:01:27.956Z,2.90
2022-09-23T11:06:38.296Z,2.80
2022-09-23T11:11:52.956Z,3.10
2022-09-23T11:17:27.982Z,3.38
2022-09-23T11:22:50.479Z,3.03
2022-09-23T11:28:18.653Z,3.10
2022-09-23T11:33:42.450Z,3.30
2022-09-23T11:38:50.395Z,2.92
2022-09-23T11:44:00.123Z,3.40
2022-09-23T11:49:13.079Z,3.25
2022-09-23T11:54:21.461Z,3.47
2022-09-23T11:59:40.001Z,3.20
2022-09-23T12:04:57.214Z,3.28
2022-09-23T12:10:06.134Z,3.10
2022-09-23T12:15:18.346Z,3.08
2022-09-23T12:20:51.229Z,3.17
2022-09-23T12:25:56.798Z,3.60
2022-09-23T12:31:02.833Z,3.40
2022-09-23T12:36:10.566Z,3.30
2022-09-23T12:41:24.968Z,3.25
2022-09-23T12:46:28.931Z,3.22
2022-09-23T12:51:34.863Z,3.08
2022-09-23T13:02:29.508Z,3.30
2022-09-23T13:07:34.972Z,3.17
2022-09-23T13:12:43.438Z,3.13
2022-09-23T13:17:47.028Z,3.38
2022-09-23T13:23:22.493Z,3.08
2022-09-23T13:28:34.003Z,3.13
2022-09-23T13:33:43.562Z,3.40
2022-09-23T13:38:48.760Z,3.20
2022-09-23T13:43:55.398Z,3.00
2022-09-23T13:48:59.438Z,2.90
2022-09-23T13:54:05.910Z,3.10
2022-09-23T13:59:23.465Z,2.90
2022-09-23T14:04:27.462Z,3.40
2022-09-23T14:09:34.578Z,3.13
2022-09-23T14:14:41.507Z,3.08
2022-09-23T14:19:45.346Z,2.97
2022-09-23T14:24:51.119Z,2.97
2022-09-23T14:29:55.088Z,3.25
2022-09-23T14:35:18.597Z,3.42
2022-09-23T14:40:26.617Z,3.08
2022-09-23T14:45:34.539Z,3.47
2022-09-23T14:50:38.462Z,3.17
2022-09-23T14:55:44.784Z,3.08
2022-09-23T15:00:54.110Z,3.00
2022-09-23T15:06:01.615Z,3.50
2022-09-23T15:11:09.574Z,3.00
2022-09-23T15:16:15.238Z,2.85
2022-09-23T15:21:20.823Z,2.97
2022-09-23T15:26:40.467Z,3.05
2022-09-23T15:31:44.050Z,3.30
2022-09-23T15:36:47.979Z,2.72
2022-09-23T15:41:53.421Z,2.95
2022-09-23T15:46:58.559Z,2.70
2022-09-23T15:52:04.085Z,2.53
2022-09-23T16:02:20.607Z,3.10
2022-09-23T16:07:24.139Z,2.88
2022-09-23T16:12:29.339Z,3.40
2022-09-23T16:17:32.860Z,3.45
2022-09-23T16:22:36.752Z,4.03
2022-09-23T16:27:41.951Z,3.88
2022-09-23T16:32:51.760Z,4.05
2022-09-23T16:37:55.488Z,4.32
2022-09-23T16:43:00.660Z,4.35
2022-09-23T16:53:07.169Z,3.80
2022-09-23T16:58:12.521Z,3.50
2022-09-23T17:03:16.076Z,3.75
2022-09-23T17:08:19.761Z,3.20
2022-09-23T17:13:25.026Z,3.20
2022-09-23T17:18:28.787Z,3.30
2022-09-23T17:23:33.286Z,3.97
2022-09-23T17:28:38.478Z,3.67
2022-09-23T17:33:42.010Z,3.60
2022-09-23T17:38:46.190Z,3.40
2022-09-23T17:43:55.344Z,3.93
2022-09-23T17:48:59.262Z,3.40
2022-09-23T17:54:02.807Z,3.35
2022-09-23T17:59:10.695Z,3.50
2022-09-23T18:04:14.322Z,3.85
2022-09-23T18:09:18.220Z,3.40
2022-09-23T18:14:23.964Z,3.53
2022-09-23T18:19:27.529Z,3.40
2022-09-23T18:24:33.091Z,3.50
2022-09-23T18:29:38.874Z,3.65
2022-09-23T18:34:42.428Z,3.50
2022-09-23T18:39:45.977Z,3.10
2022-09-23T18:44:51.206Z,3.10
2022-09-23T18:49:54.733Z,2.90
2022-09-23T18:54:58.259Z,2.90
2022-09-23T19:00:03.989Z,2.80
2022-09-23T19:05:08.482Z,3.10
2022-09-23T19:15:16.653Z,2.70
2022-09-23T19:20:20.156Z,2.80
2022-09-23T19:25:23.684Z,2.80
2022-09-23T19:30:28.865Z,2.88
2022-09-23T19:35:32.436Z,2.58
2022-09-23T19:40:36.477Z,2.40
2022-09-23T19:45:41.772Z,2.95
2022-09-23T19:50:47.927Z,2.80
2022-09-23T19:55:51.450Z,2.70
2022-09-23T20:00:56.672Z,2.80
2022-09-23T20:06:00.275Z,2.70
2022-09-23T20:11:08.462Z,2.70
2022-09-23T20:16:15.780Z,2.60
2022-09-23T20:21:19.502Z,2.60
2022-09-23T20:26:23.087Z,2.57
2022-09-23T20:31:28.977Z,2.50
2022-09-23T20:36:32.607Z,2.50
2022-09-23T20:41:37.766Z,2.57
2022-09-23T20:46:47.935Z,2.30
2022-09-23T20:51:52.281Z,2.38
2022-09-23T20:56:55.806Z,2.40
2022-09-23T21:02:03.213Z,2.75
2022-09-23T21:07:06.791Z,2.58
2022-09-23T21:12:10.305Z,2.70
2022-09-23T21:17:15.470Z,2.50
2022-09-23T21:22:19.010Z,2.63
2022-09-23T21:27:22.516Z,2.80
2022-09-23T21:32:27.691Z,2.50
2022-09-23T21:37:31.227Z,2.22
2022-09-23T21:42:34.742Z,2.50
2022-09-23T21:47:40.876Z,2.20
2022-09-23T21:52:44.492Z,2.22
2022-09-23T21:57:48.040Z,2.45
2022-09-23T22:02:53.211Z,2.50
2022-09-23T22:07:56.758Z,2.38
2022-09-23T22:13:00.300Z,2.60
2022-09-23T22:18:05.652Z,2.60
2022-09-23T22:23:09.154Z,2.42
2022-09-23T22:28:12.694Z,2.53
2022-09-23T22:33:19.242Z,2.72
2022-09-23T22:38:22.767Z,2.40
2022-09-23T22:43:26.336Z,2.30
2022-09-23T22:48:31.831Z,2.60
2022-09-23T22:53:35.349Z,2.50
2022-09-23T22:58:38.865Z,2.37
2022-09-23T23:03:44.049Z,2.40
2022-09-23T23:08:47.613Z,2.40
2022-09-23T23:13:51.463Z,2.40
2022-09-23T23:18:56.708Z,2.30
2022-09-23T23:24:00.698Z,2.40
2022-09-23T23:34:11.601Z,2.30
2022-09-23T23:39:15.514Z,2.35
2022-09-23T23:44:19.033Z,2.35
2022-09-23T23:49:24.218Z,2.43
2022-09-23T23:54:27.887Z,2.40
2022-09-23T23:59:31.459Z,2.30
